Terminal Aerodrome Forecast
Issued by NWS Dodge City, KS

Home | Current Version | Previous Version | Graphics & Text | Print | Product List | Glossary Off
Versions: 1 2 3 4 5 6 7 8 9 10 11 12 13 14 15 16 17 18 19 20 21 22 23

000
FTUS43 KDDC 191732
TAFDDC
TAF
KDDC 191732Z 1918/2018 01013KT 2SM -SHRA BR OVC004
     FM192100 01013KT 4SM BR VCTS OVC010CB
     FM200100 34013KT P6SM BKN015
     FM201500 33013KT P6SM BKN035=

USA.gov is the U.S. government's official web portal to all federal, state and local government web resources and services.